createdAt,value
2023-05-12T00:00:23.776Z,13.20
2023-05-12T00:07:24.344Z,13.10
2023-05-12T00:14:24.868Z,13.00
2023-05-12T00:21:25.447Z,13.00
2023-05-12T00:28:26.076Z,13.00
2023-05-12T00:35:26.702Z,12.90
2023-05-12T00:42:27.436Z,12.90
2023-05-12T00:49:27.987Z,13.00
2023-05-12T00:56:29.197Z,13.00
2023-05-12T01:03:30.872Z,13.10
2023-05-12T01:10:33.627Z,13.10
2023-05-12T01:17:36.240Z,13.10
2023-05-12T01:24:54.986Z,13.10
2023-05-12T01:31:55.850Z,13.20
2023-05-12T01:38:56.228Z,13.20
2023-05-12T01:45:56.606Z,13.20
2023-05-12T01:52:56.938Z,13.10
2023-05-12T01:59:57.459Z,13.00
2023-05-12T02:06:57.864Z,13.10
2023-05-12T02:13:58.670Z,13.20
2023-05-12T02:20:59.942Z,13.20
2023-05-12T02:28:00.404Z,13.20
2023-05-12T02:35:01.318Z,13.20
2023-05-12T02:42:02.155Z,13.30
2023-05-12T02:49:03.076Z,13.30
2023-05-12T02:56:03.585Z,13.30
2023-05-12T03:03:04.242Z,13.20
2023-05-12T03:10:05.419Z,13.20
2023-05-12T03:17:05.677Z,13.20
2023-05-12T03:24:06.634Z,13.20
2023-05-12T03:31:06.857Z,13.10
2023-05-12T03:38:07.454Z,13.20
2023-05-12T03:45:08.699Z,13.20
2023-05-12T03:52:09.126Z,13.20
2023-05-12T03:59:11.909Z,13.20
2023-05-12T04:06:12.716Z,13.20
2023-05-12T04:13:13.300Z,13.20
2023-05-12T04:20:13.642Z,13.20
2023-05-12T04:27:14.840Z,13.20
2023-05-12T04:34:15.843Z,13.20
2023-05-12T04:41:16.347Z,13.20
2023-05-12T04:48:16.868Z,13.10
2023-05-12T04:55:17.843Z,13.00
2023-05-12T05:02:18.772Z,13.00
2023-05-12T05:09:19.377Z,13.00
2023-05-12T05:16:19.899Z,12.90
2023-05-12T05:23:21.531Z,13.00
2023-05-12T05:30:22.023Z,13.10
2023-05-12T05:37:22.515Z,13.10
2023-05-12T05:44:22.983Z,13.20
2023-05-12T05:51:23.631Z,13.30
2023-05-12T05:58:24.130Z,13.40
2023-05-12T06:05:24.759Z,13.50
2023-05-12T06:12:25.211Z,13.60
2023-05-12T06:19:49.833Z,13.70
2023-05-12T06:26:49.920Z,13.80
2023-05-12T06:33:50.249Z,13.80
2023-05-12T06:40:50.748Z,14.00
2023-05-12T06:47:51.374Z,14.10
2023-05-12T06:54:52.304Z,14.20
2023-05-12T07:01:52.864Z,14.40
2023-05-12T07:08:54.039Z,14.50
2023-05-12T07:15:54.297Z,14.50
2023-05-12T07:22:54.950Z,14.60
2023-05-12T07:29:55.302Z,14.70
2023-05-12T07:36:55.594Z,14.80
2023-05-12T07:43:55.983Z,14.90
2023-05-12T07:50:56.235Z,15.00
2023-05-12T07:57:56.884Z,15.00
2023-05-12T08:04:57.117Z,15.10
2023-05-12T08:11:57.624Z,15.20
2023-05-12T08:18:58.766Z,15.30
2023-05-12T08:25:59.093Z,15.30
2023-05-12T08:32:59.830Z,15.40
2023-05-12T08:40:00.199Z,15.50
2023-05-12T08:47:01.624Z,15.70
2023-05-12T08:54:04.144Z,15.80
2023-05-12T09:01:06.227Z,15.90
2023-05-12T09:08:09.132Z,16.00
2023-05-12T09:15:11.960Z,16.20
2023-05-12T09:22:14.800Z,16.40
2023-05-12T09:29:23.964Z,16.60
2023-05-12T09:36:25.955Z,16.80
2023-05-12T09:43:26.174Z,17.00
2023-05-12T09:50:30.648Z,17.20
2023-05-12T09:57:43.045Z,17.40
2023-05-12T10:04:52.522Z,17.50
2023-05-12T10:11:53.957Z,17.50
2023-05-12T10:18:55.891Z,17.60
2023-05-12T10:25:58.555Z,17.70
2023-05-12T10:32:59.463Z,18.00
2023-05-12T10:40:02.576Z,18.20
2023-05-12T10:47:13.092Z,18.60
2023-05-12T10:54:20.275Z,18.70
2023-05-12T11:01:25.284Z,19.10
2023-05-12T11:08:26.752Z,19.10
2023-05-12T11:15:28.370Z,19.50
2023-05-12T11:22:29.084Z,19.90
2023-05-12T11:29:29.588Z,20.20
2023-05-12T11:36:35.663Z,20.40
2023-05-12T11:43:36.262Z,20.40
2023-05-12T11:50:41.924Z,20.60
2023-05-12T11:57:42.470Z,20.90
2023-05-12T12:04:42.744Z,21.20
2023-05-12T12:11:43.205Z,21.50
2023-05-12T12:18:43.589Z,21.40
2023-05-12T12:25:43.940Z,21.10
2023-05-12T12:32:44.763Z,20.80
2023-05-12T12:39:45.338Z,20.70
2023-05-12T12:46:45.720Z,20.60
2023-05-12T12:53:46.099Z,20.40
2023-05-12T13:00:46.631Z,20.40
2023-05-12T13:07:47.576Z,20.70
2023-05-12T13:14:48.139Z,21.00
2023-05-12T13:21:49.495Z,21.10
2023-05-12T13:28:49.702Z,21.40
2023-05-12T13:35:50.157Z,21.70
2023-05-12T13:42:50.543Z,21.70
2023-05-12T13:49:50.907Z,21.60
2023-05-12T13:56:51.568Z,21.50
2023-05-12T14:03:51.682Z,21.30
2023-05-12T14:10:52.019Z,21.20
2023-05-12T14:17:52.478Z,21.00
2023-05-12T14:24:53.401Z,20.90
2023-05-12T14:31:53.715Z,20.90
2023-05-12T14:38:54.068Z,21.00
2023-05-12T14:45:54.893Z,20.90
2023-05-12T14:52:55.575Z,20.90
2023-05-12T14:59:58.631Z,20.80
2023-05-12T15:06:58.979Z,20.80
2023-05-12T15:13:59.376Z,20.70
2023-05-12T15:20:59.792Z,20.70
2023-05-12T15:28:00.044Z,20.80
2023-05-12T15:35:00.455Z,20.90
2023-05-12T15:42:01.274Z,21.10
2023-05-12T15:49:02.041Z,21.20
2023-05-12T15:56:03.887Z,21.40
2023-05-12T16:03:04.338Z,21.50
2023-05-12T16:10:05.375Z,21.70
2023-05-12T16:17:05.789Z,21.90
2023-05-12T16:24:07.817Z,21.90
2023-05-12T16:31:09.454Z,21.90
2023-05-12T16:38:09.842Z,21.80
2023-05-12T16:45:11.060Z,21.40
2023-05-12T16:52:12.506Z,21.20
2023-05-12T16:59:12.881Z,20.90
2023-05-12T17:06:13.459Z,20.60
2023-05-12T17:13:14.131Z,20.40
2023-05-12T17:20:14.480Z,20.20
2023-05-12T17:27:14.370Z,20.10
2023-05-12T17:34:14.775Z,19.60
2023-05-12T17:41:16.060Z,19.00
2023-05-12T17:48:16.199Z,18.60
2023-05-12T17:55:17.330Z,18.20
2023-05-12T18:02:17.579Z,17.90
2023-05-12T18:09:18.106Z,17.80
2023-05-12T18:16:28.028Z,17.90
2023-05-12T18:23:29.761Z,17.90
2023-05-12T18:30:29.935Z,17.90
2023-05-12T18:37:30.331Z,18.00
2023-05-12T18:44:30.731Z,18.10
2023-05-12T18:51:31.159Z,18.10
2023-05-12T18:58:31.541Z,18.00
2023-05-12T19:05:32.051Z,17.80
2023-05-12T19:12:32.569Z,17.70
2023-05-12T19:19:32.949Z,17.60
2023-05-12T19:26:33.382Z,17.50
2023-05-12T19:33:35.006Z,17.40
2023-05-12T19:40:35.221Z,17.30
2023-05-12T19:47:37.349Z,17.00
2023-05-12T19:54:38.056Z,16.80
2023-05-12T20:01:38.545Z,16.60
2023-05-12T20:08:38.770Z,16.40
2023-05-12T20:15:40.044Z,16.30
2023-05-12T20:22:40.378Z,16.10
2023-05-12T20:29:40.796Z,16.00
2023-05-12T20:36:41.708Z,15.90
2023-05-12T20:43:42.313Z,15.80
2023-05-12T20:50:43.642Z,15.80
2023-05-12T20:57:44.034Z,15.70
2023-05-12T21:04:44.376Z,15.60
2023-05-12T21:11:44.751Z,15.30
2023-05-12T21:18:45.091Z,15.20
2023-05-12T21:25:45.536Z,15.00
2023-05-12T21:32:46.477Z,14.80
2023-05-12T21:39:46.843Z,14.80
2023-05-12T21:46:47.313Z,14.70
2023-05-12T21:53:47.731Z,14.50
2023-05-12T22:00:48.228Z,14.40
2023-05-12T22:07:48.686Z,14.40
2023-05-12T22:14:49.306Z,14.20
2023-05-12T22:21:49.809Z,14.10
2023-05-12T22:28:50.358Z,14.00
2023-05-12T22:35:50.637Z,13.90
2023-05-12T22:42:51.117Z,13.80
2023-05-12T22:49:51.500Z,13.70
2023-05-12T22:56:51.909Z,13.60
2023-05-12T23:03:52.370Z,13.50
2023-05-12T23:10:52.766Z,13.30
2023-05-12T23:17:53.470Z,13.10
2023-05-12T23:24:54.878Z,13.00
2023-05-12T23:31:55.086Z,12.90
2023-05-12T23:38:55.411Z,12.80
2023-05-12T23:45:55.985Z,12.70
2023-05-12T23:52:56.522Z,12.70
2023-05-12T23:59:56.771Z,12.60
